sensor_id;sensor_type;location;lat;lon;timestamp;P1;durP1;ratioP1;P2;durP2;ratioP2
39434;SDS011;30098;51.880;-0.518;2022-09-28T00:01:37;1.40;;;0.60;;
39434;SDS011;30098;51.880;-0.518;2022-09-28T00:04:03;1.50;;;0.60;;
39434;SDS011;30098;51.880;-0.518;2022-09-28T00:06:29;1.88;;;0.80;;
39434;SDS011;30098;51.880;-0.518;2022-09-28T00:08:55;2.17;;;0.82;;
39434;SDS011;30098;51.880;-0.518;2022-09-28T00:11:21;1.15;;;0.68;;
39434;SDS011;30098;51.880;-0.518;2022-09-28T00:13:51;1.30;;;0.63;;
39434;SDS011;30098;51.880;-0.518;2022-09-28T00:16:21;1.50;;;0.57;;
39434;SDS011;30098;51.880;-0.518;2022-09-28T00:18:49;0.90;;;0.60;;
39434;SDS011;30098;51.880;-0.518;2022-09-28T00:21:20;1.38;;;0.60;;
39434;SDS011;30098;51.880;-0.518;2022-09-28T00:23:49;1.60;;;0.70;;
39434;SDS011;30098;51.880;-0.518;2022-09-28T00:26:34;1.83;;;0.60;;
39434;SDS011;30098;51.880;-0.518;2022-09-28T00:29:00;1.38;;;0.65;;
39434;SDS011;30098;51.880;-0.518;2022-09-28T00:31:27;1.30;;;0.70;;
39434;SDS011;30098;51.880;-0.518;2022-09-28T00:33:56;1.38;;;0.63;;
39434;SDS011;30098;51.880;-0.518;2022-09-28T00:36:25;1.77;;;0.90;;
39434;SDS011;30098;51.880;-0.518;2022-09-28T00:38:52;1.50;;;0.60;;
39434;SDS011;30098;51.880;-0.518;2022-09-28T00:41:20;1.45;;;0.60;;
39434;SDS011;30098;51.880;-0.518;2022-09-28T00:43:47;1.27;;;0.70;;
39434;SDS011;30098;51.880;-0.518;2022-09-28T00:48:39;2.00;;;0.65;;
39434;SDS011;30098;51.880;-0.518;2022-09-28T00:51:12;0.77;;;0.50;;
39434;SDS011;30098;51.880;-0.518;2022-09-28T00:53:38;2.28;;;0.70;;
39434;SDS011;30098;51.880;-0.518;2022-09-28T00:56:08;1.65;;;0.60;;
39434;SDS011;30098;51.880;-0.518;2022-09-28T01:01:08;2.25;;;0.70;;
39434;SDS011;30098;51.880;-0.518;2022-09-28T01:03:34;1.15;;;0.52;;
39434;SDS011;30098;51.880;-0.518;2022-09-28T01:06:02;1.40;;;0.60;;
39434;SDS011;30098;51.880;-0.518;2022-09-28T01:08:30;1.67;;;0.85;;
39434;SDS011;30098;51.880;-0.518;2022-09-28T01:10:58;1.50;;;0.65;;
39434;SDS011;30098;51.880;-0.518;2022-09-28T01:13:24;1.38;;;0.70;;
39434;SDS011;30098;51.880;-0.518;2022-09-28T01:18:21;1.02;;;0.60;;
39434;SDS011;30098;51.880;-0.518;2022-09-28T01:21:00;1.13;;;0.60;;
39434;SDS011;30098;51.880;-0.518;2022-09-28T01:26:45;1.30;;;0.65;;
39434;SDS011;30098;51.880;-0.518;2022-09-28T01:29:29;1.63;;;0.73;;
39434;SDS011;30098;51.880;-0.518;2022-09-28T01:32:05;1.50;;;0.63;;
39434;SDS011;30098;51.880;-0.518;2022-09-28T01:34:54;1.27;;;0.65;;
39434;SDS011;30098;51.880;-0.518;2022-09-28T01:37:23;1.77;;;0.70;;
39434;SDS011;30098;51.880;-0.518;2022-09-28T01:39:56;1.20;;;0.50;;
39434;SDS011;30098;51.880;-0.518;2022-09-28T01:42:28;1.10;;;0.50;;
39434;SDS011;30098;51.880;-0.518;2022-09-28T01:44:59;1.52;;;0.55;;
39434;SDS011;30098;51.880;-0.518;2022-09-28T01:47:30;2.13;;;0.70;;
39434;SDS011;30098;51.880;-0.518;2022-09-28T01:52:30;1.20;;;0.63;;
39434;SDS011;30098;51.880;-0.518;2022-09-28T01:55:10;1.55;;;0.70;;
39434;SDS011;30098;51.880;-0.518;2022-09-28T01:57:47;1.23;;;0.52;;
39434;SDS011;30098;51.880;-0.518;2022-09-28T02:00:17;1.40;;;0.70;;
39434;SDS011;30098;51.880;-0.518;2022-09-28T02:02:49;1.80;;;0.60;;
39434;SDS011;30098;51.880;-0.518;2022-09-28T02:05:42;1.35;;;0.60;;
39434;SDS011;30098;51.880;-0.518;2022-09-28T02:11:04;2.03;;;0.70;;
39434;SDS011;30098;51.880;-0.518;2022-09-28T02:14:15;1.58;;;0.75;;
39434;SDS011;30098;51.880;-0.518;2022-09-28T02:16:33;1.40;;;0.63;;
39434;SDS011;30098;51.880;-0.518;2022-09-28T02:24:40;1.00;;;0.52;;
39434;SDS011;30098;51.880;-0.518;2022-09-28T02:28:11;1.05;;;0.52;;
39434;SDS011;30098;51.880;-0.518;2022-09-28T02:30:14;1.48;;;0.60;;
39434;SDS011;30098;51.880;-0.518;2022-09-28T02:32:43;1.65;;;0.70;;
39434;SDS011;30098;51.880;-0.518;2022-09-28T02:37:39;1.05;;;0.50;;
39434;SDS011;30098;51.880;-0.518;2022-09-28T02:40:16;1.85;;;0.60;;
39434;SDS011;30098;51.880;-0.518;2022-09-28T02:45:25;1.60;;;0.70;;
39434;SDS011;30098;51.880;-0.518;2022-09-28T02:48:14;1.05;;;0.60;;
39434;SDS011;30098;51.880;-0.518;2022-09-28T02:53:36;1.25;;;0.57;;
39434;SDS011;30098;51.880;-0.518;2022-09-28T03:02:49;0.90;;;0.50;;
39434;SDS011;30098;51.880;-0.518;2022-09-28T03:07:56;1.98;;;0.70;;
39434;SDS011;30098;51.880;-0.518;2022-09-28T03:10:38;1.23;;;0.60;;
39434;SDS011;30098;51.880;-0.518;2022-09-28T03:13:08;1.95;;;0.65;;
39434;SDS011;30098;51.880;-0.518;2022-09-28T03:15:36;1.00;;;0.60;;
39434;SDS011;30098;51.880;-0.518;2022-09-28T03:18:01;1.25;;;0.60;;
39434;SDS011;30098;51.880;-0.518;2022-09-28T03:20:28;1.33;;;0.60;;
39434;SDS011;30098;51.880;-0.518;2022-09-28T03:22:55;1.30;;;0.55;;
39434;SDS011;30098;51.880;-0.518;2022-09-28T03:25:22;1.35;;;0.73;;
39434;SDS011;30098;51.880;-0.518;2022-09-28T03:27:47;0.93;;;0.55;;
39434;SDS011;30098;51.880;-0.518;2022-09-28T03:30:13;1.30;;;0.60;;
39434;SDS011;30098;51.880;-0.518;2022-09-28T03:32:39;1.38;;;0.73;;
39434;SDS011;30098;51.880;-0.518;2022-09-28T03:35:05;1.73;;;0.80;;
39434;SDS011;30098;51.880;-0.518;2022-09-28T03:37:31;1.35;;;0.60;;
39434;SDS011;30098;51.880;-0.518;2022-09-28T03:39:56;1.45;;;0.60;;
39434;SDS011;30098;51.880;-0.518;2022-09-28T03:42:22;1.80;;;0.60;;
39434;SDS011;30098;51.880;-0.518;2022-09-28T03:44:48;1.02;;;0.60;;
39434;SDS011;30098;51.880;-0.518;2022-09-28T03:47:13;1.25;;;0.50;;
39434;SDS011;30098;51.880;-0.518;2022-09-28T03:49:41;1.00;;;0.55;;
39434;SDS011;30098;51.880;-0.518;2022-09-28T03:52:06;0.93;;;0.43;;
39434;SDS011;30098;51.880;-0.518;2022-09-28T03:54:32;1.27;;;0.75;;
39434;SDS011;30098;51.880;-0.518;2022-09-28T03:56:57;1.17;;;0.50;;
39434;SDS011;30098;51.880;-0.518;2022-09-28T03:59:23;0.90;;;0.40;;
39434;SDS011;30098;51.880;-0.518;2022-09-28T04:01:48;1.50;;;0.70;;
39434;SDS011;30098;51.880;-0.518;2022-09-28T04:04:15;1.70;;;0.65;;
39434;SDS011;30098;51.880;-0.518;2022-09-28T04:06:41;0.90;;;0.47;;
39434;SDS011;30098;51.880;-0.518;2022-09-28T04:09:07;1.50;;;0.52;;
39434;SDS011;30098;51.880;-0.518;2022-09-28T04:11:32;1.38;;;0.50;;
39434;SDS011;30098;51.880;-0.518;2022-09-28T04:13:58;1.30;;;0.80;;
39434;SDS011;30098;51.880;-0.518;2022-09-28T04:16:24;1.13;;;0.68;;
39434;SDS011;30098;51.880;-0.518;2022-09-28T04:18:50;1.10;;;0.40;;
39434;SDS011;30098;51.880;-0.518;2022-09-28T04:21:16;1.20;;;0.70;;
39434;SDS011;30098;51.880;-0.518;2022-09-28T04:23:46;1.33;;;0.52;;
39434;SDS011;30098;51.880;-0.518;2022-09-28T04:26:17;1.52;;;0.70;;
39434;SDS011;30098;51.880;-0.518;2022-09-28T04:28:43;1.08;;;0.50;;
39434;SDS011;30098;51.880;-0.518;2022-09-28T04:31:28;0.93;;;0.45;;
39434;SDS011;30098;51.880;-0.518;2022-09-28T04:33:56;1.52;;;0.70;;
39434;SDS011;30098;51.880;-0.518;2022-09-28T04:36:22;1.40;;;0.60;;
39434;SDS011;30098;51.880;-0.518;2022-09-28T04:38:50;1.42;;;0.60;;
39434;SDS011;30098;51.880;-0.518;2022-09-28T04:41:16;1.50;;;0.60;;
39434;SDS011;30098;51.880;-0.518;2022-09-28T04:43:42;1.58;;;0.60;;
39434;SDS011;30098;51.880;-0.518;2022-09-28T04:46:08;0.75;;;0.40;;
39434;SDS011;30098;51.880;-0.518;2022-09-28T04:48:36;2.20;;;0.98;;
39434;SDS011;30098;51.880;-0.518;2022-09-28T04:51:01;1.40;;;0.70;;
39434;SDS011;30098;51.880;-0.518;2022-09-28T04:53:27;1.25;;;0.50;;
39434;SDS011;30098;51.880;-0.518;2022-09-28T04:56:00;1.05;;;0.50;;
39434;SDS011;30098;51.880;-0.518;2022-09-28T04:58:28;1.10;;;0.60;;
39434;SDS011;30098;51.880;-0.518;2022-09-28T05:00:58;1.10;;;0.60;;
39434;SDS011;30098;51.880;-0.518;2022-09-28T05:03:25;1.92;;;0.70;;
39434;SDS011;30098;51.880;-0.518;2022-09-28T05:05:51;1.13;;;0.50;;
39434;SDS011;30098;51.880;-0.518;2022-09-28T05:08:16;1.27;;;0.60;;
39434;SDS011;30098;51.880;-0.518;2022-09-28T05:10:42;1.38;;;0.50;;
39434;SDS011;30098;51.880;-0.518;2022-09-28T05:13:09;1.35;;;0.60;;
39434;SDS011;30098;51.880;-0.518;2022-09-28T05:15:36;1.33;;;0.50;;
39434;SDS011;30098;51.880;-0.518;2022-09-28T05:18:02;1.40;;;0.60;;
39434;SDS011;30098;51.880;-0.518;2022-09-28T05:20:28;1.10;;;0.60;;
39434;SDS011;30098;51.880;-0.518;2022-09-28T05:22:54;1.65;;;0.70;;
39434;SDS011;30098;51.880;-0.518;2022-09-28T05:25:20;1.48;;;0.50;;
39434;SDS011;30098;51.880;-0.518;2022-09-28T05:27:46;1.38;;;0.50;;
39434;SDS011;30098;51.880;-0.518;2022-09-28T05:30:11;1.45;;;0.50;;
39434;SDS011;30098;51.880;-0.518;2022-09-28T05:32:40;1.45;;;0.60;;
39434;SDS011;30098;51.880;-0.518;2022-09-28T05:35:06;0.90;;;0.60;;
39434;SDS011;30098;51.880;-0.518;2022-09-28T05:37:32;1.10;;;0.47;;
39434;SDS011;30098;51.880;-0.518;2022-09-28T05:39:58;1.25;;;0.60;;
39434;SDS011;30098;51.880;-0.518;2022-09-28T05:42:24;1.00;;;0.60;;
39434;SDS011;30098;51.880;-0.518;2022-09-28T05:44:49;2.30;;;0.77;;
39434;SDS011;30098;51.880;-0.518;2022-09-28T05:47:15;1.20;;;0.57;;
39434;SDS011;30098;51.880;-0.518;2022-09-28T05:49:40;1.45;;;0.60;;
39434;SDS011;30098;51.880;-0.518;2022-09-28T05:52:06;1.15;;;0.55;;
39434;SDS011;30098;51.880;-0.518;2022-09-28T05:54:32;1.50;;;0.57;;
39434;SDS011;30098;51.880;-0.518;2022-09-28T05:56:57;1.42;;;0.50;;
39434;SDS011;30098;51.880;-0.518;2022-09-28T05:59:23;0.70;;;0.40;;
39434;SDS011;30098;51.880;-0.518;2022-09-28T06:01:48;0.77;;;0.50;;
39434;SDS011;30098;51.880;-0.518;2022-09-28T06:04:14;1.30;;;0.65;;
39434;SDS011;30098;51.880;-0.518;2022-09-28T06:06:40;1.20;;;0.52;;
39434;SDS011;30098;51.880;-0.518;2022-09-28T06:09:06;1.23;;;0.60;;
39434;SDS011;30098;51.880;-0.518;2022-09-28T06:11:32;1.08;;;0.60;;
39434;SDS011;30098;51.880;-0.518;2022-09-28T06:13:57;1.58;;;0.60;;
39434;SDS011;30098;51.880;-0.518;2022-09-28T06:16:23;1.02;;;0.60;;
39434;SDS011;30098;51.880;-0.518;2022-09-28T06:18:48;1.40;;;0.60;;
39434;SDS011;30098;51.880;-0.518;2022-09-28T06:21:13;1.25;;;0.70;;
39434;SDS011;30098;51.880;-0.518;2022-09-28T06:23:39;1.48;;;0.70;;
39434;SDS011;30098;51.880;-0.518;2022-09-28T06:26:05;1.55;;;0.80;;
39434;SDS011;30098;51.880;-0.518;2022-09-28T06:28:30;2.25;;;0.68;;
39434;SDS011;30098;51.880;-0.518;2022-09-28T06:30:57;1.42;;;0.50;;
39434;SDS011;30098;51.880;-0.518;2022-09-28T06:33:24;0.73;;;0.40;;
39434;SDS011;30098;51.880;-0.518;2022-09-28T06:35:50;1.92;;;0.50;;
39434;SDS011;30098;51.880;-0.518;2022-09-28T06:38:16;2.20;;;0.60;;
39434;SDS011;30098;51.880;-0.518;2022-09-28T06:40:42;1.05;;;0.60;;
39434;SDS011;30098;51.880;-0.518;2022-09-28T06:43:11;0.90;;;0.47;;
39434;SDS011;30098;51.880;-0.518;2022-09-28T06:45:40;1.10;;;0.70;;
39434;SDS011;30098;51.880;-0.518;2022-09-28T06:48:06;1.58;;;0.63;;
39434;SDS011;30098;51.880;-0.518;2022-09-28T06:50:34;0.88;;;0.40;;
39434;SDS011;30098;51.880;-0.518;2022-09-28T06:53:02;1.40;;;0.55;;
39434;SDS011;30098;51.880;-0.518;2022-09-28T06:55:30;1.75;;;0.68;;
39434;SDS011;30098;51.880;-0.518;2022-09-28T06:57:59;3.53;;;0.70;;
39434;SDS011;30098;51.880;-0.518;2022-09-28T07:00:30;4.32;;;0.80;;
39434;SDS011;30098;51.880;-0.518;2022-09-28T07:03:01;2.72;;;0.80;;
39434;SDS011;30098;51.880;-0.518;2022-09-28T07:05:28;1.88;;;0.70;;
39434;SDS011;30098;51.880;-0.518;2022-09-28T07:07:55;2.40;;;0.70;;
39434;SDS011;30098;51.880;-0.518;2022-09-28T07:10:26;0.88;;;0.50;;
39434;SDS011;30098;51.880;-0.518;2022-09-28T07:12:53;2.20;;;0.70;;
39434;SDS011;30098;51.880;-0.518;2022-09-28T07:15:20;1.35;;;0.70;;
39434;SDS011;30098;51.880;-0.518;2022-09-28T07:17:46;2.03;;;0.77;;
39434;SDS011;30098;51.880;-0.518;2022-09-28T07:20:11;2.08;;;0.80;;
39434;SDS011;30098;51.880;-0.518;2022-09-28T07:22:37;1.20;;;0.65;;
39434;SDS011;30098;51.880;-0.518;2022-09-28T07:25:03;1.85;;;0.82;;
39434;SDS011;30098;51.880;-0.518;2022-09-28T07:27:30;1.85;;;0.75;;
39434;SDS011;30098;51.880;-0.518;2022-09-28T07:29:56;4.22;;;1.20;;
39434;SDS011;30098;51.880;-0.518;2022-09-28T07:32:23;1.80;;;0.82;;
39434;SDS011;30098;51.880;-0.518;2022-09-28T07:34:48;2.45;;;0.90;;
39434;SDS011;30098;51.880;-0.518;2022-09-28T07:37:15;3.55;;;1.05;;
39434;SDS011;30098;51.880;-0.518;2022-09-28T07:39:43;2.13;;;1.00;;
39434;SDS011;30098;51.880;-0.518;2022-09-28T07:42:27;2.30;;;0.70;;
39434;SDS011;30098;51.880;-0.518;2022-09-28T07:44:57;2.45;;;0.90;;
39434;SDS011;30098;51.880;-0.518;2022-09-28T07:47:23;2.10;;;1.15;;
39434;SDS011;30098;51.880;-0.518;2022-09-28T07:49:51;2.75;;;1.00;;
39434;SDS011;30098;51.880;-0.518;2022-09-28T07:52:19;5.18;;;1.23;;
39434;SDS011;30098;51.880;-0.518;2022-09-28T07:54:48;3.35;;;1.10;;
39434;SDS011;30098;51.880;-0.518;2022-09-28T07:57:16;5.35;;;1.10;;
39434;SDS011;30098;51.880;-0.518;2022-09-28T07:59:43;4.10;;;1.23;;
39434;SDS011;30098;51.880;-0.518;2022-09-28T08:02:09;5.40;;;1.30;;
39434;SDS011;30098;51.880;-0.518;2022-09-28T08:04:35;4.32;;;1.30;;
39434;SDS011;30098;51.880;-0.518;2022-09-28T08:07:00;2.40;;;1.00;;
39434;SDS011;30098;51.880;-0.518;2022-09-28T08:09:27;4.72;;;1.27;;
39434;SDS011;30098;51.880;-0.518;2022-09-28T08:11:53;3.90;;;1.13;;
39434;SDS011;30098;51.880;-0.518;2022-09-28T08:14:19;5.03;;;1.30;;
39434;SDS011;30098;51.880;-0.518;2022-09-28T08:16:44;4.22;;;1.08;;
39434;SDS011;30098;51.880;-0.518;2022-09-28T08:19:10;4.00;;;1.00;;
39434;SDS011;30098;51.880;-0.518;2022-09-28T08:21:36;5.10;;;1.17;;
39434;SDS011;30098;51.880;-0.518;2022-09-28T08:24:13;4.05;;;1.10;;
39434;SDS011;30098;51.880;-0.518;2022-09-28T08:26:40;4.57;;;1.30;;
39434;SDS011;30098;51.880;-0.518;2022-09-28T08:29:07;5.18;;;1.35;;
39434;SDS011;30098;51.880;-0.518;2022-09-28T08:31:33;3.20;;;1.20;;
39434;SDS011;30098;51.880;-0.518;2022-09-28T08:33:58;4.60;;;1.15;;
39434;SDS011;30098;51.880;-0.518;2022-09-28T08:36:24;4.65;;;1.38;;
39434;SDS011;30098;51.880;-0.518;2022-09-28T08:38:49;2.67;;;1.17;;
39434;SDS011;30098;51.880;-0.518;2022-09-28T08:41:31;4.97;;;1.52;;
39434;SDS011;30098;51.880;-0.518;2022-09-28T08:46:44;5.68;;;1.38;;
39434;SDS011;30098;51.880;-0.518;2022-09-28T08:49:28;2.95;;;0.98;;
39434;SDS011;30098;51.880;-0.518;2022-09-28T08:52:19;4.80;;;1.20;;
39434;SDS011;30098;51.880;-0.518;2022-09-28T08:54:54;4.05;;;1.20;;
39434;SDS011;30098;51.880;-0.518;2022-09-28T08:57:44;6.55;;;1.50;;
39434;SDS011;30098;51.880;-0.518;2022-09-28T09:00:19;4.28;;;1.45;;
39434;SDS011;30098;51.880;-0.518;2022-09-28T09:02:57;6.65;;;1.65;;
39434;SDS011;30098;51.880;-0.518;2022-09-28T09:05:23;4.70;;;1.30;;
39434;SDS011;30098;51.880;-0.518;2022-09-28T09:10:49;4.07;;;1.40;;
39434;SDS011;30098;51.880;-0.518;2022-09-28T09:18:48;4.50;;;1.20;;
39434;SDS011;30098;51.880;-0.518;2022-09-28T09:21:40;3.95;;;1.30;;
39434;SDS011;30098;51.880;-0.518;2022-09-28T09:25:02;6.05;;;1.45;;
39434;SDS011;30098;51.880;-0.518;2022-09-28T09:30:19;6.00;;;1.70;;
39434;SDS011;30098;51.880;-0.518;2022-09-28T09:51:44;7.78;;;1.90;;
39434;SDS011;30098;51.880;-0.518;2022-09-28T09:54:14;5.55;;;1.52;;
39434;SDS011;30098;51.880;-0.518;2022-09-28T09:56:55;11.70;;;2.03;;
39434;SDS011;30098;51.880;-0.518;2022-09-28T09:59:23;9.70;;;2.10;;
39434;SDS011;30098;51.880;-0.518;2022-09-28T10:01:59;7.63;;;2.00;;
39434;SDS011;30098;51.880;-0.518;2022-09-28T10:04:33;6.30;;;1.67;;
39434;SDS011;30098;51.880;-0.518;2022-09-28T10:07:02;5.40;;;1.73;;
39434;SDS011;30098;51.880;-0.518;2022-09-28T10:09:31;8.35;;;2.38;;
39434;SDS011;30098;51.880;-0.518;2022-09-28T10:12:07;7.93;;;1.90;;
39434;SDS011;30098;51.880;-0.518;2022-09-28T10:14:34;7.72;;;1.90;;
39434;SDS011;30098;51.880;-0.518;2022-09-28T10:17:00;6.53;;;1.88;;
39434;SDS011;30098;51.880;-0.518;2022-09-28T10:19:29;10.48;;;1.88;;
39434;SDS011;30098;51.880;-0.518;2022-09-28T10:21:57;6.72;;;1.90;;
39434;SDS011;30098;51.880;-0.518;2022-09-28T10:24:30;6.18;;;1.60;;
39434;SDS011;30098;51.880;-0.518;2022-09-28T10:27:03;8.07;;;1.85;;
39434;SDS011;30098;51.880;-0.518;2022-09-28T10:32:26;10.73;;;2.40;;
39434;SDS011;30098;51.880;-0.518;2022-09-28T10:35:21;10.70;;;2.58;;
39434;SDS011;30098;51.880;-0.518;2022-09-28T10:37:57;12.27;;;2.63;;
39434;SDS011;30098;51.880;-0.518;2022-09-28T10:43:36;10.27;;;2.20;;
39434;SDS011;30098;51.880;-0.518;2022-09-28T10:46:14;9.85;;;2.60;;
39434;SDS011;30098;51.880;-0.518;2022-09-28T10:49:21;11.52;;;2.90;;
39434;SDS011;30098;51.880;-0.518;2022-09-28T10:56:39;15.15;;;2.92;;
39434;SDS011;30098;51.880;-0.518;2022-09-28T11:02:15;10.60;;;2.33;;
39434;SDS011;30098;51.880;-0.518;2022-09-28T11:04:50;11.05;;;2.83;;
39434;SDS011;30098;51.880;-0.518;2022-09-28T11:07:18;9.90;;;2.40;;
39434;SDS011;30098;51.880;-0.518;2022-09-28T11:12:24;8.93;;;2.45;;
39434;SDS011;30098;51.880;-0.518;2022-09-28T11:15:00;14.25;;;3.13;;
39434;SDS011;30098;51.880;-0.518;2022-09-28T11:17:32;6.68;;;2.08;;
39434;SDS011;30098;51.880;-0.518;2022-09-28T11:22:50;6.53;;;1.98;;
39434;SDS011;30098;51.880;-0.518;2022-09-28T11:25:19;7.55;;;1.90;;
39434;SDS011;30098;51.880;-0.518;2022-09-28T11:49:37;16.33;;;2.80;;
39434;SDS011;30098;51.880;-0.518;2022-09-28T11:54:56;8.35;;;2.10;;
39434;SDS011;30098;51.880;-0.518;2022-09-28T11:57:27;8.43;;;2.13;;
39434;SDS011;30098;51.880;-0.518;2022-09-28T12:00:03;7.65;;;2.05;;
39434;SDS011;30098;51.880;-0.518;2022-09-28T12:02:36;8.60;;;1.90;;
39434;SDS011;30098;51.880;-0.518;2022-09-28T12:07:47;10.15;;;2.10;;
39434;SDS011;30098;51.880;-0.518;2022-09-28T12:12:50;9.40;;;1.70;;
39434;SDS011;30098;51.880;-0.518;2022-09-28T12:15:44;9.02;;;1.98;;
39434;SDS011;30098;51.880;-0.518;2022-09-28T12:20:50;8.27;;;2.22;;
39434;SDS011;30098;51.880;-0.518;2022-09-28T12:23:32;4.95;;;1.65;;
39434;SDS011;30098;51.880;-0.518;2022-09-28T12:26:43;2.92;;;1.13;;
39434;SDS011;30098;51.880;-0.518;2022-09-28T12:28:48;2.78;;;1.25;;
39434;SDS011;30098;51.880;-0.518;2022-09-28T12:31:22;4.65;;;1.23;;
39434;SDS011;30098;51.880;-0.518;2022-09-28T12:33:56;4.60;;;1.23;;
39434;SDS011;30098;51.880;-0.518;2022-09-28T12:37:10;3.85;;;1.10;;
39434;SDS011;30098;51.880;-0.518;2022-09-28T12:39:25;6.40;;;1.42;;
39434;SDS011;30098;51.880;-0.518;2022-09-28T12:45:14;5.35;;;1.20;;
39434;SDS011;30098;51.880;-0.518;2022-09-28T12:56:59;4.05;;;1.10;;
39434;SDS011;30098;51.880;-0.518;2022-09-28T12:59:31;2.80;;;1.00;;
39434;SDS011;30098;51.880;-0.518;2022-09-28T13:02:20;4.93;;;1.30;;
39434;SDS011;30098;51.880;-0.518;2022-09-28T13:13:15;3.85;;;0.90;;
39434;SDS011;30098;51.880;-0.518;2022-09-28T13:18:54;2.75;;;0.98;;
39434;SDS011;30098;51.880;-0.518;2022-09-28T13:23:59;10.48;;;1.80;;
39434;SDS011;30098;51.880;-0.518;2022-09-28T13:26:33;9.35;;;2.25;;
39434;SDS011;30098;51.880;-0.518;2022-09-28T13:29:03;13.90;;;3.38;;
39434;SDS011;30098;51.880;-0.518;2022-09-28T13:31:35;12.93;;;2.33;;
39434;SDS011;30098;51.880;-0.518;2022-09-28T13:34:11;11.45;;;2.45;;
39434;SDS011;30098;51.880;-0.518;2022-09-28T13:36:44;14.88;;;2.90;;
39434;SDS011;30098;51.880;-0.518;2022-09-28T13:42:11;14.23;;;2.92;;
39434;SDS011;30098;51.880;-0.518;2022-09-28T13:44:54;13.98;;;2.65;;
39434;SDS011;30098;51.880;-0.518;2022-09-28T13:58:47;6.57;;;2.10;;
39434;SDS011;30098;51.880;-0.518;2022-09-28T14:01:30;11.15;;;2.40;;
39434;SDS011;30098;51.880;-0.518;2022-09-28T14:04:18;5.97;;;1.80;;
39434;SDS011;30098;51.880;-0.518;2022-09-28T14:06:50;7.88;;;1.80;;
39434;SDS011;30098;51.880;-0.518;2022-09-28T14:09:25;9.27;;;2.10;;
39434;SDS011;30098;51.880;-0.518;2022-09-28T14:12:25;5.50;;;1.70;;
39434;SDS011;30098;51.880;-0.518;2022-09-28T14:20:18;9.10;;;1.65;;
39434;SDS011;30098;51.880;-0.518;2022-09-28T14:25:31;6.85;;;1.23;;
39434;SDS011;30098;51.880;-0.518;2022-09-28T14:35:45;3.90;;;0.90;;
39434;SDS011;30098;51.880;-0.518;2022-09-28T14:38:18;5.18;;;1.10;;
39434;SDS011;30098;51.880;-0.518;2022-09-28T14:41:06;4.60;;;1.15;;
39434;SDS011;30098;51.880;-0.518;2022-09-28T14:48:49;3.67;;;0.63;;
39434;SDS011;30098;51.880;-0.518;2022-09-28T14:59:40;6.75;;;1.02;;
39434;SDS011;30098;51.880;-0.518;2022-09-28T15:02:13;5.25;;;1.35;;
39434;SDS011;30098;51.880;-0.518;2022-09-28T15:04:42;6.03;;;1.70;;
39434;SDS011;30098;51.880;-0.518;2022-09-28T15:07:17;6.45;;;1.60;;
39434;SDS011;30098;51.880;-0.518;2022-09-28T15:09:48;7.22;;;1.70;;
39434;SDS011;30098;51.880;-0.518;2022-09-28T15:12:16;3.38;;;1.05;;
39434;SDS011;30098;51.880;-0.518;2022-09-28T15:14:45;3.63;;;1.20;;
39434;SDS011;30098;51.880;-0.518;2022-09-28T15:17:17;6.57;;;1.30;;
39434;SDS011;30098;51.880;-0.518;2022-09-28T15:22:17;6.82;;;1.35;;
39434;SDS011;30098;51.880;-0.518;2022-09-28T15:24:52;4.72;;;1.20;;
39434;SDS011;30098;51.880;-0.518;2022-09-28T15:27:20;5.78;;;1.20;;
39434;SDS011;30098;51.880;-0.518;2022-09-28T15:30:22;4.35;;;1.10;;
39434;SDS011;30098;51.880;-0.518;2022-09-28T15:32:48;6.30;;;1.15;;
39434;SDS011;30098;51.880;-0.518;2022-09-28T15:35:18;5.68;;;1.05;;
39434;SDS011;30098;51.880;-0.518;2022-09-28T15:37:49;4.35;;;1.10;;
39434;SDS011;30098;51.880;-0.518;2022-09-28T15:42:57;4.35;;;1.20;;
39434;SDS011;30098;51.880;-0.518;2022-09-28T15:45:30;3.58;;;0.70;;
39434;SDS011;30098;51.880;-0.518;2022-09-28T15:48:19;4.63;;;0.63;;
39434;SDS011;30098;51.880;-0.518;2022-09-28T15:51:05;5.07;;;0.95;;
39434;SDS011;30098;51.880;-0.518;2022-09-28T15:56:05;5.25;;;0.82;;
39434;SDS011;30098;51.880;-0.518;2022-09-28T15:58:34;5.70;;;0.82;;
39434;SDS011;30098;51.880;-0.518;2022-09-28T16:01:16;4.28;;;0.88;;
39434;SDS011;30098;51.880;-0.518;2022-09-28T16:03:50;7.75;;;0.90;;
39434;SDS011;30098;51.880;-0.518;2022-09-28T16:06:15;3.88;;;0.80;;
39434;SDS011;30098;51.880;-0.518;2022-09-28T16:08:41;2.40;;;0.88;;
39434;SDS011;30098;51.880;-0.518;2022-09-28T16:11:24;6.60;;;0.90;;
39434;SDS011;30098;51.880;-0.518;2022-09-28T16:13:59;2.35;;;0.90;;
39434;SDS011;30098;51.880;-0.518;2022-09-28T16:16:36;3.30;;;0.70;;
39434;SDS011;30098;51.880;-0.518;2022-09-28T16:21:54;2.95;;;0.70;;
39434;SDS011;30098;51.880;-0.518;2022-09-28T16:24:23;3.55;;;0.50;;
39434;SDS011;30098;51.880;-0.518;2022-09-28T16:26:58;5.07;;;0.82;;
39434;SDS011;30098;51.880;-0.518;2022-09-28T16:29:32;7.13;;;1.00;;
39434;SDS011;30098;51.880;-0.518;2022-09-28T16:32:28;9.98;;;1.05;;
39434;SDS011;30098;51.880;-0.518;2022-09-28T16:37:34;3.42;;;0.80;;
39434;SDS011;30098;51.880;-0.518;2022-09-28T16:40:00;3.60;;;0.73;;
39434;SDS011;30098;51.880;-0.518;2022-09-28T16:42:25;5.93;;;1.15;;
39434;SDS011;30098;51.880;-0.518;2022-09-28T16:44:52;5.10;;;0.70;;
39434;SDS011;30098;51.880;-0.518;2022-09-28T16:47:19;2.63;;;0.60;;
39434;SDS011;30098;51.880;-0.518;2022-09-28T16:49:44;2.33;;;0.80;;
39434;SDS011;30098;51.880;-0.518;2022-09-28T16:52:10;3.08;;;0.80;;
39434;SDS011;30098;51.880;-0.518;2022-09-28T16:54:36;1.80;;;0.70;;
39434;SDS011;30098;51.880;-0.518;2022-09-28T16:57:20;4.15;;;0.80;;
39434;SDS011;30098;51.880;-0.518;2022-09-28T16:59:46;5.97;;;0.90;;
39434;SDS011;30098;51.880;-0.518;2022-09-28T17:02:15;3.00;;;0.73;;
39434;SDS011;30098;51.880;-0.518;2022-09-28T17:04:43;5.07;;;0.88;;
39434;SDS011;30098;51.880;-0.518;2022-09-28T17:07:09;4.38;;;1.17;;
39434;SDS011;30098;51.880;-0.518;2022-09-28T17:09:37;17.27;;;1.65;;
39434;SDS011;30098;51.880;-0.518;2022-09-28T17:12:08;23.55;;;2.15;;
39434;SDS011;30098;51.880;-0.518;2022-09-28T17:14:40;33.22;;;3.13;;
39434;SDS011;30098;51.880;-0.518;2022-09-28T17:17:07;19.17;;;1.90;;
39434;SDS011;30098;51.880;-0.518;2022-09-28T17:19:32;19.95;;;2.45;;
39434;SDS011;30098;51.880;-0.518;2022-09-28T17:21:58;16.48;;;2.00;;
39434;SDS011;30098;51.880;-0.518;2022-09-28T17:24:23;15.95;;;1.75;;
39434;SDS011;30098;51.880;-0.518;2022-09-28T17:26:49;14.85;;;2.13;;
39434;SDS011;30098;51.880;-0.518;2022-09-28T17:29:16;10.02;;;1.63;;
39434;SDS011;30098;51.880;-0.518;2022-09-28T17:31:43;14.30;;;1.88;;
39434;SDS011;30098;51.880;-0.518;2022-09-28T17:34:10;8.68;;;1.70;;
39434;SDS011;30098;51.880;-0.518;2022-09-28T17:36:37;10.85;;;1.60;;
39434;SDS011;30098;51.880;-0.518;2022-09-28T17:39:05;11.43;;;1.90;;
39434;SDS011;30098;51.880;-0.518;2022-09-28T17:41:34;6.45;;;1.83;;
39434;SDS011;30098;51.880;-0.518;2022-09-28T17:44:01;10.30;;;1.70;;
39434;SDS011;30098;51.880;-0.518;2022-09-28T17:46:34;11.15;;;1.63;;
39434;SDS011;30098;51.880;-0.518;2022-09-28T17:49:03;6.90;;;1.60;;
39434;SDS011;30098;51.880;-0.518;2022-09-28T17:51:32;7.53;;;1.42;;
39434;SDS011;30098;51.880;-0.518;2022-09-28T17:53:59;6.25;;;1.70;;
39434;SDS011;30098;51.880;-0.518;2022-09-28T17:56:28;11.05;;;1.50;;
39434;SDS011;30098;51.880;-0.518;2022-09-28T17:58:58;6.97;;;1.38;;
39434;SDS011;30098;51.880;-0.518;2022-09-28T18:01:31;4.47;;;1.15;;
39434;SDS011;30098;51.880;-0.518;2022-09-28T18:04:02;9.32;;;1.45;;
39434;SDS011;30098;51.880;-0.518;2022-09-28T18:08:56;4.85;;;1.20;;
39434;SDS011;30098;51.880;-0.518;2022-09-28T18:11:21;6.35;;;1.30;;
39434;SDS011;30098;51.880;-0.518;2022-09-28T18:13:47;3.40;;;1.05;;
39434;SDS011;30098;51.880;-0.518;2022-09-28T18:16:12;5.28;;;1.35;;
39434;SDS011;30098;51.880;-0.518;2022-09-28T18:18:38;5.03;;;1.15;;
39434;SDS011;30098;51.880;-0.518;2022-09-28T18:21:04;7.32;;;1.67;;
39434;SDS011;30098;51.880;-0.518;2022-09-28T18:23:33;3.95;;;1.00;;